createdAt,value
2019-04-27T00:00:47.604Z,12.40
2019-04-27T00:03:19.805Z,12.39
2019-04-27T00:05:50.216Z,12.35
2019-04-27T00:08:38.779Z,12.31
2019-04-27T00:11:08.726Z,12.29
2019-04-27T00:13:40.619Z,12.25
2019-04-27T00:16:15.941Z,12.22
2019-04-27T00:18:49.799Z,12.21
2019-04-27T00:21:30.719Z,12.24
2019-04-27T00:24:01.296Z,12.21
2019-04-27T00:26:33.330Z,12.22
2019-04-27T00:29:04.559Z,12.20
2019-04-27T00:31:35.351Z,12.22
2019-04-27T00:34:05.706Z,12.23
2019-04-27T00:36:53.461Z,12.24
2019-04-27T00:39:43.640Z,12.29
2019-04-27T00:42:15.207Z,12.42
2019-04-27T00:44:45.698Z,12.50
2019-04-27T00:47:15.938Z,12.58
2019-04-27T00:49:46.646Z,12.65
2019-04-27T00:52:18.847Z,12.70
2019-04-27T00:54:49.554Z,12.74
2019-04-27T00:57:22.873Z,12.84
2019-04-27T01:00:11.175Z,12.91
2019-04-27T01:02:43.634Z,12.88
2019-04-27T01:05:15.930Z,12.84
2019-04-27T01:07:46.796Z,12.81
2019-04-27T01:10:17.499Z,12.77
2019-04-27T01:12:47.887Z,12.74
2019-04-27T01:15:18.594Z,12.68
2019-04-27T01:17:49.071Z,12.62
2019-04-27T01:20:19.590Z,12.54
2019-04-27T01:22:50.184Z,12.46
2019-04-27T01:25:24.082Z,12.36
2019-04-27T01:27:59.631Z,12.29
2019-04-27T01:30:39.199Z,12.25
2019-04-27T01:33:09.852Z,12.22
2019-04-27T01:35:42.152Z,12.20
2019-04-27T01:38:12.640Z,12.19
2019-04-27T01:40:42.912Z,12.13
2019-04-27T01:43:13.126Z,12.10
2019-04-27T01:45:43.338Z,12.05
2019-04-27T01:48:23.031Z,12.00
2019-04-27T01:50:45.644Z,11.97
2019-04-27T01:53:16.404Z,11.94
2019-04-27T01:55:46.676Z,11.91
2019-04-27T01:58:19.943Z,11.88
2019-04-27T02:01:00.978Z,11.84
2019-04-27T02:03:49.628Z,11.84
2019-04-27T02:06:20.901Z,11.83
2019-04-27T02:08:51.396Z,11.83
2019-04-27T02:11:21.684Z,11.82
2019-04-27T02:13:51.935Z,11.83
2019-04-27T02:16:22.153Z,11.78
2019-04-27T02:18:52.388Z,11.77
2019-04-27T02:21:22.604Z,11.76
2019-04-27T02:23:53.218Z,11.74
2019-04-27T02:26:24.296Z,11.73
2019-04-27T02:29:01.675Z,11.71
2019-04-27T02:31:34.749Z,11.68
2019-04-27T02:34:13.045Z,11.65
2019-04-27T02:36:43.702Z,11.64
2019-04-27T02:39:14.601Z,11.70
2019-04-27T02:41:45.257Z,11.68
2019-04-27T02:44:20.196Z,11.70
2019-04-27T02:46:52.954Z,11.65
2019-04-27T02:49:23.225Z,11.62
2019-04-27T02:52:11.490Z,11.62
2019-04-27T02:54:41.793Z,11.65
2019-04-27T02:57:12.425Z,11.66
2019-04-27T02:59:43.064Z,11.69
2019-04-27T03:02:19.677Z,11.76
2019-04-27T03:04:50.191Z,11.82
2019-04-27T03:07:20.435Z,11.93
2019-04-27T03:09:51.242Z,11.95
2019-04-27T03:12:24.414Z,11.97
2019-04-27T03:15:00.624Z,11.98
2019-04-27T03:17:32.896Z,11.97
2019-04-27T03:20:10.601Z,11.95
2019-04-27T03:22:43.002Z,11.94
2019-04-27T03:25:15.966Z,11.96
2019-04-27T03:27:51.046Z,11.98
2019-04-27T03:30:23.506Z,12.01
2019-04-27T03:32:56.875Z,12.07
2019-04-27T03:35:32.069Z,12.12
2019-04-27T03:38:01.476Z,12.17
2019-04-27T03:40:32.146Z,12.25
2019-04-27T03:43:05.097Z,12.35
2019-04-27T03:45:35.769Z,12.44
2019-04-27T03:48:06.678Z,12.57
2019-04-27T03:50:55.394Z,12.71
2019-04-27T03:53:39.850Z,12.82
2019-04-27T03:56:30.556Z,13.00
2019-04-27T03:59:02.656Z,13.15
2019-04-27T04:01:33.026Z,13.34
2019-04-27T04:04:03.749Z,13.51
2019-04-27T04:06:36.330Z,13.72
2019-04-27T04:09:11.114Z,13.91
2019-04-27T04:11:46.005Z,14.06
2019-04-27T04:14:23.852Z,14.25
2019-04-27T04:16:59.986Z,14.43
2019-04-27T04:19:31.509Z,14.57
2019-04-27T04:22:01.437Z,14.77
2019-04-27T04:24:31.995Z,15.01
2019-04-27T04:27:02.525Z,15.22
2019-04-27T04:29:32.794Z,15.45
2019-04-27T04:32:03.402Z,15.68
2019-04-27T04:34:33.793Z,15.95
2019-04-27T04:37:04.701Z,16.16
2019-04-27T04:39:34.984Z,16.42
2019-04-27T04:42:09.927Z,16.73
2019-04-27T04:44:52.483Z,17.07
2019-04-27T04:47:30.733Z,17.34
2019-04-27T04:50:11.232Z,17.59
2019-04-27T04:52:34.156Z,17.86
2019-04-27T04:55:05.436Z,18.13
2019-04-27T04:57:36.123Z,18.44
2019-04-27T05:00:09.891Z,18.77
2019-04-27T05:02:40.717Z,19.21
2019-04-27T05:05:11.515Z,19.72
2019-04-27T05:07:41.982Z,20.30
2019-04-27T05:10:12.582Z,20.97
2019-04-27T05:12:42.806Z,21.80
2019-04-27T05:15:13.122Z,22.40
2019-04-27T05:17:44.522Z,23.02
2019-04-27T05:20:24.441Z,23.74
2019-04-27T05:22:52.249Z,24.08
2019-04-27T05:25:22.545Z,24.27
2019-04-27T05:27:52.777Z,24.44
2019-04-27T05:30:23.049Z,24.69
2019-04-27T05:32:53.647Z,25.18
2019-04-27T05:35:24.465Z,25.28
2019-04-27T05:37:54.780Z,25.19
2019-04-27T05:40:25.011Z,25.29
2019-04-27T05:42:56.253Z,25.44
2019-04-27T05:45:57.706Z,25.23
2019-04-27T05:48:32.092Z,25.15
2019-04-27T05:51:03.777Z,25.29
2019-04-27T05:53:33.998Z,25.12
2019-04-27T05:56:04.222Z,25.09
2019-04-27T05:58:34.455Z,24.95
2019-04-27T06:01:06.367Z,25.04
2019-04-27T06:03:37.362Z,25.22
2019-04-27T06:06:09.517Z,25.35
2019-04-27T06:08:39.707Z,25.83
2019-04-27T06:11:10.377Z,26.09
2019-04-27T06:13:40.665Z,26.24
2019-04-27T06:16:10.889Z,26.66
2019-04-27T06:18:42.422Z,26.99
2019-04-27T06:21:12.815Z,27.32
2019-04-27T06:23:43.561Z,27.86
2019-04-27T06:26:13.902Z,28.41
2019-04-27T06:28:44.130Z,29.12
2019-04-27T06:31:14.363Z,29.96
2019-04-27T06:33:44.597Z,30.84
2019-04-27T06:36:14.879Z,31.39
2019-04-27T06:38:45.102Z,31.46
2019-04-27T06:41:15.404Z,31.52
2019-04-27T06:43:45.641Z,31.60
2019-04-27T06:46:17.511Z,32.05
2019-04-27T06:48:49.468Z,32.70
2019-04-27T06:51:20.097Z,33.39
2019-04-27T06:53:51.101Z,33.83
2019-04-27T06:56:21.347Z,34.39
2019-04-27T06:58:51.791Z,35.09
2019-04-27T07:01:22.042Z,34.87
2019-04-27T07:03:52.261Z,35.23
2019-04-27T07:06:23.618Z,35.15
2019-04-27T07:08:55.328Z,34.81
2019-04-27T07:11:25.871Z,34.82
2019-04-27T07:13:56.235Z,36.13
2019-04-27T07:16:26.484Z,36.96
2019-04-27T07:18:57.236Z,37.24
2019-04-27T07:21:28.652Z,37.05
2019-04-27T07:24:00.393Z,37.41
2019-04-27T07:26:30.686Z,37.33
2019-04-27T07:29:00.935Z,36.55
2019-04-27T07:31:31.880Z,35.38
2019-04-27T07:34:02.440Z,34.12
2019-04-27T07:36:33.066Z,34.03
2019-04-27T07:39:04.054Z,33.89
2019-04-27T07:41:35.761Z,34.26
2019-04-27T07:44:11.271Z,34.94
2019-04-27T07:46:41.605Z,35.40
2019-04-27T07:49:11.848Z,34.61
2019-04-27T07:51:42.070Z,35.14
2019-04-27T07:54:12.283Z,35.57
2019-04-27T07:56:42.891Z,36.72
2019-04-27T07:59:13.190Z,37.60
2019-04-27T08:01:43.400Z,38.24
2019-04-27T08:04:13.995Z,38.82
2019-04-27T08:06:45.876Z,38.84
2019-04-27T08:09:16.167Z,38.94
2019-04-27T08:11:46.460Z,39.50
2019-04-27T08:14:18.580Z,39.81
2019-04-27T08:16:49.551Z,39.46
2019-04-27T08:19:20.212Z,38.54
2019-04-27T08:21:50.878Z,38.76
2019-04-27T08:24:21.619Z,39.11
2019-04-27T08:26:56.473Z,37.78
2019-04-27T08:29:43.714Z,36.28
2019-04-27T08:32:19.579Z,35.56
2019-04-27T08:34:50.303Z,34.39
2019-04-27T08:37:20.915Z,32.92
2019-04-27T08:39:52.242Z,31.99
2019-04-27T08:42:22.400Z,30.95
2019-04-27T08:44:53.850Z,29.96
2019-04-27T08:47:24.536Z,29.53
2019-04-27T08:49:54.894Z,29.34
2019-04-27T08:52:25.166Z,29.15
2019-04-27T08:54:55.384Z,28.87
2019-04-27T08:57:28.850Z,29.72
2019-04-27T08:59:59.661Z,30.21
2019-04-27T09:02:41.763Z,30.03
2019-04-27T09:05:02.228Z,30.33
2019-04-27T09:07:41.656Z,29.77
2019-04-27T09:10:15.629Z,29.12
2019-04-27T09:13:01.122Z,28.26
2019-04-27T09:15:49.444Z,27.58
2019-04-27T09:18:22.376Z,27.14
2019-04-27T09:20:54.346Z,26.96
2019-04-27T09:23:26.207Z,26.81
2019-04-27T09:25:59.406Z,26.67
2019-04-27T09:28:29.973Z,26.76
2019-04-27T09:31:00.508Z,27.00
2019-04-27T09:33:31.294Z,27.30
2019-04-27T09:36:01.585Z,27.77
2019-04-27T09:38:32.178Z,27.68
2019-04-27T09:41:02.467Z,27.45
2019-04-27T09:43:33.357Z,26.99
2019-04-27T09:46:05.693Z,26.31
2019-04-27T09:48:36.204Z,25.74
2019-04-27T09:51:06.659Z,25.33
2019-04-27T09:53:37.322Z,25.05
2019-04-27T09:56:07.709Z,24.89
2019-04-27T09:58:38.380Z,25.00
2019-04-27T10:01:09.462Z,25.27
2019-04-27T10:03:46.035Z,25.52
2019-04-27T10:06:17.057Z,25.84
2019-04-27T10:08:47.864Z,26.46
2019-04-27T10:11:18.172Z,27.06
2019-04-27T10:13:48.872Z,27.41
2019-04-27T10:16:19.212Z,27.41
2019-04-27T10:18:49.536Z,27.28
2019-04-27T10:21:20.163Z,27.06
2019-04-27T10:23:50.527Z,26.82
2019-04-27T10:26:20.738Z,26.84
2019-04-27T10:28:50.973Z,27.18
2019-04-27T10:31:21.208Z,26.91
2019-04-27T10:33:51.491Z,26.90
2019-04-27T10:36:41.146Z,27.08
2019-04-27T10:39:13.774Z,27.06
2019-04-27T10:41:46.280Z,26.63
2019-04-27T10:44:18.198Z,26.56
2019-04-27T10:46:48.398Z,26.29
2019-04-27T10:49:19.260Z,26.08
2019-04-27T10:51:49.633Z,25.80
2019-04-27T10:54:20.164Z,25.58
2019-04-27T10:56:50.848Z,25.31
2019-04-27T10:59:21.684Z,24.99
2019-04-27T11:01:52.318Z,24.72
2019-04-27T11:04:33.463Z,24.46
2019-04-27T11:07:07.109Z,24.19
2019-04-27T11:09:38.944Z,24.09
2019-04-27T11:12:09.478Z,23.95
2019-04-27T11:14:39.697Z,23.96
2019-04-27T11:17:11.372Z,23.83
2019-04-27T11:19:41.607Z,23.51
2019-04-27T11:22:12.305Z,23.33
2019-04-27T11:24:42.716Z,23.35
2019-04-27T11:27:12.934Z,23.01
2019-04-27T11:29:43.243Z,22.81
2019-04-27T11:32:15.765Z,22.81
2019-04-27T11:34:59.897Z,22.56
2019-04-27T11:37:32.173Z,22.39
2019-04-27T11:40:02.483Z,22.26
2019-04-27T11:42:34.157Z,22.14
2019-04-27T11:45:10.691Z,21.95
2019-04-27T11:47:41.448Z,21.73
2019-04-27T11:50:13.243Z,21.64
2019-04-27T11:52:45.503Z,21.54
2019-04-27T11:55:16.260Z,21.43
2019-04-27T11:57:47.005Z,21.21
2019-04-27T12:00:24.247Z,21.24
2019-04-27T12:02:56.816Z,21.20
2019-04-27T12:05:27.763Z,21.23
2019-04-27T12:08:08.997Z,21.28
2019-04-27T12:10:39.531Z,21.26
2019-04-27T12:13:09.837Z,21.06
2019-04-27T12:15:40.157Z,20.97
2019-04-27T12:18:10.486Z,20.81
2019-04-27T12:20:40.714Z,20.54
2019-04-27T12:23:11.091Z,20.49
2019-04-27T12:25:42.741Z,20.54
2019-04-27T12:28:30.639Z,20.52
2019-04-27T12:31:01.043Z,20.59
2019-04-27T12:33:31.349Z,20.66
2019-04-27T12:36:01.554Z,20.72
2019-04-27T12:38:31.803Z,20.76
2019-04-27T12:41:02.038Z,20.63
2019-04-27T12:43:32.369Z,20.51
2019-04-27T12:46:03.011Z,20.36
2019-04-27T12:48:33.734Z,20.07
2019-04-27T12:51:04.373Z,19.90
2019-04-27T12:53:49.970Z,19.60
2019-04-27T12:56:21.904Z,19.47
2019-04-27T12:58:53.932Z,19.35
2019-04-27T13:01:28.495Z,19.23
2019-04-27T13:04:12.341Z,19.03
2019-04-27T13:06:42.630Z,18.88
2019-04-27T13:09:13.255Z,18.65
2019-04-27T13:11:43.554Z,18.55
2019-04-27T13:14:13.966Z,18.44
2019-04-27T13:16:45.700Z,18.31
2019-04-27T13:19:16.424Z,18.28
2019-04-27T13:21:47.033Z,18.25
2019-04-27T13:24:18.900Z,18.20
2019-04-27T13:26:49.120Z,18.11
2019-04-27T13:29:20.757Z,18.05
2019-04-27T13:31:50.974Z,17.99
2019-04-27T13:34:21.614Z,17.88
2019-04-27T13:36:52.199Z,17.83
2019-04-27T13:39:22.825Z,17.84
2019-04-27T13:41:53.198Z,17.69
2019-04-27T13:44:23.412Z,17.73
2019-04-27T13:47:11.285Z,17.59
2019-04-27T13:49:43.143Z,17.41
2019-04-27T13:52:16.199Z,17.34
2019-04-27T13:54:46.592Z,17.21
2019-04-27T13:57:18.428Z,17.10
2019-04-27T13:59:48.946Z,17.01
2019-04-27T14:02:23.457Z,16.94
2019-04-27T14:04:51.549Z,16.86
2019-04-27T14:07:21.771Z,16.78
2019-04-27T14:09:52.341Z,16.75
2019-04-27T14:12:23.012Z,16.70
2019-04-27T14:14:53.415Z,16.75
2019-04-27T14:17:24.025Z,16.80
2019-04-27T14:19:54.640Z,16.65
2019-04-27T14:22:24.928Z,16.65
2019-04-27T14:24:55.169Z,16.52
2019-04-27T14:27:27.416Z,16.69
2019-04-27T14:29:59.569Z,16.58
2019-04-27T14:32:30.181Z,16.63
2019-04-27T14:35:00.935Z,16.66
2019-04-27T14:37:31.455Z,16.57
2019-04-27T14:40:02.061Z,16.54
2019-04-27T14:42:34.180Z,16.48
2019-04-27T14:45:08.993Z,16.47
2019-04-27T14:47:40.026Z,16.45
2019-04-27T14:50:11.184Z,16.37
2019-04-27T14:52:41.392Z,16.28
2019-04-27T14:55:12.260Z,16.12
2019-04-27T14:57:42.755Z,16.07
2019-04-27T15:00:16.086Z,16.07
2019-04-27T15:02:46.633Z,16.02
2019-04-27T15:05:18.770Z,15.94
2019-04-27T15:07:50.665Z,15.89
2019-04-27T15:10:20.953Z,15.85
2019-04-27T15:12:52.259Z,15.74
2019-04-27T15:15:22.920Z,15.77
2019-04-27T15:17:57.490Z,15.79
2019-04-27T15:20:32.722Z,15.87
2019-04-27T15:23:02.817Z,15.91
2019-04-27T15:25:42.344Z,15.88
2019-04-27T15:28:12.155Z,15.86
2019-04-27T15:31:02.431Z,15.79
2019-04-27T15:33:54.726Z,15.79
2019-04-27T15:36:28.383Z,15.84
2019-04-27T15:39:12.353Z,15.81
2019-04-27T15:41:53.541Z,15.74
2019-04-27T15:44:27.823Z,15.75
2019-04-27T15:46:58.155Z,15.67
2019-04-27T15:49:28.441Z,15.58
2019-04-27T15:52:00.145Z,15.53
2019-04-27T15:54:32.318Z,15.51
2019-04-27T15:57:05.822Z,15.44
2019-04-27T15:59:37.782Z,15.54
2019-04-27T16:02:11.805Z,15.46
2019-04-27T16:04:44.425Z,15.39
2019-04-27T16:07:12.615Z,15.35
2019-04-27T16:09:43.206Z,15.34
2019-04-27T16:12:13.577Z,15.28
2019-04-27T16:14:44.256Z,15.16
2019-04-27T16:17:14.882Z,15.15
2019-04-27T16:19:50.207Z,15.07
2019-04-27T16:22:22.602Z,15.02
2019-04-27T16:24:54.728Z,14.94
2019-04-27T16:27:31.327Z,14.98
2019-04-27T16:30:09.597Z,14.96
2019-04-27T16:32:40.390Z,15.03
2019-04-27T16:35:14.067Z,14.93
2019-04-27T16:38:01.194Z,14.83
2019-04-27T16:40:40.102Z,14.83
2019-04-27T16:43:10.402Z,14.78
2019-04-27T16:45:40.630Z,14.68
2019-04-27T16:48:10.937Z,14.63
2019-04-27T16:50:41.364Z,14.56
2019-04-27T16:53:12.699Z,14.58
2019-04-27T16:55:43.373Z,14.51
2019-04-27T16:58:15.986Z,14.44
2019-04-27T17:00:47.946Z,14.44
2019-04-27T17:03:18.289Z,14.39
2019-04-27T17:05:48.980Z,14.35
2019-04-27T17:08:22.289Z,14.38
2019-04-27T17:10:51.370Z,14.29
2019-04-27T17:13:22.189Z,14.32
2019-04-27T17:16:06.033Z,14.16
2019-04-27T17:18:43.688Z,14.14
2019-04-27T17:21:19.042Z,14.17
2019-04-27T17:23:51.717Z,14.17
2019-04-27T17:26:24.066Z,14.12
2019-04-27T17:29:16.811Z,14.15
2019-04-27T17:31:45.071Z,14.09
2019-04-27T17:34:19.043Z,13.98
2019-04-27T17:36:48.550Z,13.97
2019-04-27T17:39:23.270Z,13.96
2019-04-27T17:41:53.106Z,13.96
2019-04-27T17:44:23.528Z,14.06
2019-04-27T17:46:53.828Z,14.11
2019-04-27T17:49:24.485Z,14.05
2019-04-27T17:51:54.978Z,14.04
2019-04-27T17:54:28.867Z,13.93
2019-04-27T17:57:01.307Z,13.91
2019-04-27T17:59:40.808Z,13.89
2019-04-27T18:02:15.082Z,13.86
2019-04-27T18:04:45.314Z,13.82
2019-04-27T18:07:22.166Z,13.88
2019-04-27T18:09:54.251Z,13.89
2019-04-27T18:12:25.671Z,13.92
2019-04-27T18:14:56.007Z,13.89
2019-04-27T18:17:28.747Z,13.90
2019-04-27T18:20:08.724Z,13.79
2019-04-27T18:22:40.308Z,13.75
2019-04-27T18:25:10.696Z,13.71
2019-04-27T18:27:45.504Z,13.65
2019-04-27T18:30:21.113Z,13.63
2019-04-27T18:32:51.939Z,13.59
2019-04-27T18:35:26.153Z,13.53
2019-04-27T18:37:58.415Z,13.60
2019-04-27T18:40:32.182Z,13.59
2019-04-27T18:43:02.013Z,13.59
2019-04-27T18:45:38.072Z,13.59
2019-04-27T18:48:13.487Z,13.60
2019-04-27T18:50:43.591Z,13.62
2019-04-27T18:53:16.372Z,13.64
2019-04-27T18:55:50.059Z,13.65
2019-04-27T18:58:21.182Z,13.67
2019-04-27T19:00:51.561Z,13.70
2019-04-27T19:03:22.157Z,13.68
2019-04-27T19:05:52.523Z,13.69
2019-04-27T19:08:23.116Z,13.69
2019-04-27T19:10:53.713Z,13.64
2019-04-27T19:13:23.971Z,13.67
2019-04-27T19:15:54.371Z,13.71
2019-04-27T19:18:25.571Z,13.81
2019-04-27T19:20:55.853Z,13.74
2019-04-27T19:23:26.688Z,13.80
2019-04-27T19:26:01.653Z,13.70
2019-04-27T19:28:42.650Z,13.66
2019-04-27T19:31:14.758Z,13.71
2019-04-27T19:33:45.035Z,13.59
2019-04-27T19:36:15.522Z,13.62
2019-04-27T19:38:45.773Z,13.58
2019-04-27T19:41:18.409Z,13.57
2019-04-27T19:43:48.918Z,13.58
2019-04-27T19:46:20.132Z,13.54
2019-04-27T19:48:51.059Z,13.55
2019-04-27T19:51:21.795Z,13.53
2019-04-27T19:53:52.281Z,13.53
2019-04-27T19:56:22.511Z,13.53
2019-04-27T19:58:54.692Z,13.51
2019-04-27T20:01:28.076Z,13.53
2019-04-27T20:04:00.200Z,13.65
2019-04-27T20:06:30.572Z,13.56
2019-04-27T20:09:11.127Z,13.49
2019-04-27T20:11:41.652Z,13.50
2019-04-27T20:14:12.027Z,13.47
2019-04-27T20:16:42.292Z,13.46
2019-04-27T20:19:12.885Z,13.39
2019-04-27T20:21:43.224Z,13.37
2019-04-27T20:24:15.028Z,13.36
2019-04-27T20:26:45.585Z,13.38
2019-04-27T20:29:16.860Z,13.36
2019-04-27T20:31:47.461Z,13.35
2019-04-27T20:34:17.807Z,13.33
2019-04-27T20:36:48.463Z,13.37
2019-04-27T20:39:19.147Z,13.36
2019-04-27T20:41:51.135Z,13.34
2019-04-27T20:44:21.545Z,13.43
2019-04-27T20:46:51.889Z,13.44
2019-04-27T20:49:22.267Z,13.38
2019-04-27T20:51:57.126Z,13.34
2019-04-27T20:54:27.762Z,13.33
2019-04-27T20:56:58.477Z,13.30
2019-04-27T20:59:28.779Z,13.32
2019-04-27T21:02:00.739Z,13.36
2019-04-27T21:04:35.415Z,13.34
2019-04-27T21:07:07.289Z,13.37
2019-04-27T21:09:38.094Z,13.42
2019-04-27T21:12:08.658Z,13.40
2019-04-27T21:14:41.833Z,13.40
2019-04-27T21:17:12.499Z,13.42
2019-04-27T21:19:42.721Z,13.40
2019-04-27T21:22:12.955Z,13.39
2019-04-27T21:24:43.170Z,13.36
2019-04-27T21:27:13.433Z,13.34
2019-04-27T21:29:44.122Z,13.33
2019-04-27T21:32:14.429Z,13.37
2019-04-27T21:34:44.671Z,13.32
2019-04-27T21:37:14.891Z,13.29
2019-04-27T21:39:46.665Z,13.31
2019-04-27T21:42:17.252Z,13.31
2019-04-27T21:44:47.928Z,13.29
2019-04-27T21:47:20.022Z,13.36
2019-04-27T21:49:51.783Z,13.31
2019-04-27T21:52:26.618Z,13.29
2019-04-27T21:55:01.326Z,13.27
2019-04-27T21:57:32.935Z,13.24
2019-04-27T22:00:10.915Z,13.30
2019-04-27T22:02:43.274Z,13.33
2019-04-27T22:05:15.388Z,13.28
2019-04-27T22:07:47.239Z,13.30
2019-04-27T22:10:17.455Z,13.25
2019-04-27T22:12:47.725Z,13.27
2019-04-27T22:15:17.926Z,13.23
2019-04-27T22:17:50.266Z,13.20
2019-04-27T22:20:20.832Z,13.19
2019-04-27T22:22:55.360Z,13.19
2019-04-27T22:25:26.495Z,13.18
2019-04-27T22:27:56.982Z,13.18
2019-04-27T22:30:27.650Z,13.20
2019-04-27T22:32:58.284Z,13.24
2019-04-27T22:35:28.813Z,13.28
2019-04-27T22:37:59.038Z,13.24
2019-04-27T22:40:46.752Z,13.20
2019-04-27T22:43:35.173Z,13.15
2019-04-27T22:46:07.805Z,13.16
2019-04-27T22:48:38.123Z,13.08
2019-04-27T22:51:08.405Z,13.10
2019-04-27T22:53:38.935Z,13.22
2019-04-27T22:56:16.620Z,13.18
2019-04-27T22:58:58.445Z,13.10
2019-04-27T23:01:40.710Z,13.09
2019-04-27T23:04:22.837Z,13.08
2019-04-27T23:06:53.054Z,13.06
2019-04-27T23:09:23.653Z,13.01
2019-04-27T23:11:54.304Z,13.00
2019-04-27T23:14:24.600Z,13.03
2019-04-27T23:17:13.829Z,12.94
2019-04-27T23:19:44.395Z,12.90
2019-04-27T23:22:15.111Z,12.88
2019-04-27T23:24:45.805Z,12.93
2019-04-27T23:27:16.455Z,12.91
2019-04-27T23:29:46.747Z,12.90
2019-04-27T23:32:18.634Z,12.88
2019-04-27T23:34:49.312Z,12.88
2019-04-27T23:37:19.789Z,12.86
2019-04-27T23:39:50.015Z,12.90
2019-04-27T23:42:21.711Z,12.82
2019-04-27T23:44:52.636Z,12.82
2019-04-27T23:47:22.947Z,12.83
2019-04-27T23:49:53.201Z,12.86
2019-04-27T23:52:25.213Z,12.83
2019-04-27T23:54:55.522Z,12.79
2019-04-27T23:57:26.089Z,12.76
2019-04-27T23:59:56.390Z,12.70
